Time;durP1;ratioP1;P1;durP2;ratioP2;P2;SDS_P1;SDS_P2;PMS_P1;PMS_P2;Temp;Humidity;BMP_temperature;BMP_pressure;BME280_temperature;BME280_humidity;BME280_pressure;Samples;Min_cycle;Max_cycle;Signal;HPM_P1;HPM_P2
2022/04/22 00:00:14;;;;;;;17.13;11.37;;;;;;;9.78;69.89;97941.28;5114850;28;43704;-75
2022/04/22 00:02:41;;;;;;;17.23;11.67;;;;;;;9.82;70.29;97942.75;5113327;28;41322;-75
2022/04/22 00:05:11;;;;;;;18.40;10.90;;;;;;;9.79;69.87;97953.53;5113610;28;39928;-75
2022/04/22 00:07:38;;;;;;;15.63;11.00;;;;;;;9.76;69.80;97946.72;5112878;28;40610;-74
2022/04/22 00:10:08;;;;;;;14.97;11.00;;;;;;;9.70;70.23;97940.06;5113439;28;42832;-75
2022/04/22 00:12:36;;;;;;;17.10;11.30;;;;;;;9.66;70.55;97938.59;5113007;28;42123;-75
2022/04/22 00:15:05;;;;;;;14.20;10.17;;;;;;;9.64;70.47;97939.69;5113444;28;38925;-75
2022/04/22 00:17:32;;;;;;;19.03;12.53;;;;;;;9.59;71.05;97934.72;5112986;28;42292;-75
2022/04/22 00:20:00;;;;;;;16.73;11.57;;;;;;;9.51;70.84;97929.16;5095683;28;41950;-75
2022/04/22 00:22:29;;;;;;;17.53;11.97;;;;;;;9.53;70.51;97926.38;5095830;28;41471;-75
2022/04/22 00:24:56;;;;;;;16.50;11.37;;;;;;;9.51;71.04;97923.88;5114629;28;39924;-74
2022/04/22 00:27:23;;;;;;;19.27;11.00;;;;;;;9.48;71.17;97918.81;5095728;28;40732;-75
2022/04/22 00:29:51;;;;;;;16.27;11.90;;;;;;;9.45;71.66;97919.00;5114629;28;43873;-74
2022/04/22 00:32:19;;;;;;;15.97;10.73;;;;;;;9.43;71.35;97918.28;5112467;28;42025;-74
2022/04/22 00:34:46;;;;;;;17.33;11.17;;;;;;;9.37;71.54;97902.88;5096189;28;40967;-74
2022/04/22 00:37:14;;;;;;;19.90;12.33;;;;;;;9.35;72.67;97900.34;5112580;28;40895;-74
2022/04/22 00:39:42;;;;;;;18.10;12.33;;;;;;;9.33;72.62;97899.63;5095889;28;41609;-74
2022/04/22 00:42:11;;;;;;;18.60;11.30;;;;;;;9.32;72.21;97897.94;5113834;28;42280;-76
2022/04/22 00:44:39;;;;;;;18.40;11.67;;;;;;;9.28;73.11;97890.31;5114270;28;40061;-74
2022/04/22 00:47:06;;;;;;;18.33;12.47;;;;;;;9.27;72.92;97899.22;5097534;27;41693;-74
2022/04/22 00:49:34;;;;;;;18.57;12.37;;;;;;;9.27;72.54;97893.94;5114087;28;43714;-75
2022/04/22 00:52:03;;;;;;;16.20;11.20;;;;;;;9.26;72.34;97892.25;5095681;28;41303;-75
2022/04/22 00:54:31;;;;;;;19.10;12.57;;;;;;;9.19;72.22;97875.16;5113877;28;39989;-74
2022/04/22 00:57:00;;;;;;;18.53;12.20;;;;;;;9.18;73.37;97873.47;5112101;28;42821;-74
2022/04/22 00:59:31;;;;;;;19.77;12.37;;;;;;;9.17;72.61;97877.91;5095460;28;42917;-74
2022/04/22 01:01:58;;;;;;;18.37;12.03;;;;;;;9.19;72.35;97872.50;5111194;28;42253;-74
2022/04/22 01:09:56;;;;;;;18.33;11.23;;;;;;;9.05;72.64;97865.56;5110716;28;42730;-74
2022/04/22 01:12:28;;;;;;;20.17;12.70;;;;;;;9.02;73.16;97859.69;5112083;28;42628;-74
2022/04/22 01:14:56;;;;;;;17.00;11.17;;;;;;;8.98;73.41;97857.28;5109016;28;41046;-75
2022/04/22 01:17:24;;;;;;;18.27;11.47;;;;;;;8.94;73.70;97860.22;5110958;28;41914;-74
2022/04/22 01:19:52;;;;;;;21.50;12.97;;;;;;;8.88;74.25;97861.53;5113375;28;43641;-74
2022/04/22 01:22:21;;;;;;;18.27;12.77;;;;;;;8.82;74.07;97847.91;5111963;28;43015;-74
2022/04/22 01:24:50;;;;;;;17.10;11.57;;;;;;;8.89;74.11;97865.00;5112353;28;40936;-74
2022/04/22 01:27:18;;;;;;;17.90;11.73;;;;;;;8.86;73.95;97862.59;5113069;28;42680;-75
2022/04/22 01:29:45;;;;;;;19.50;12.60;;;;;;;8.85;73.35;97859.09;5095150;28;41738;-74
2022/04/22 01:32:13;;;;;;;19.93;11.90;;;;;;;8.85;73.72;97860.91;5113063;28;42361;-74
2022/04/22 01:34:42;;;;;;;18.83;12.07;;;;;;;8.82;73.77;97859.31;5095102;28;40393;-74
2022/04/22 01:37:10;;;;;;;21.90;11.90;;;;;;;8.80;73.81;97863.84;5112033;28;40518;-74
2022/04/22 01:39:39;;;;;;;20.07;12.60;;;;;;;8.77;74.39;97850.03;5112172;28;42693;-74
2022/04/22 01:42:07;;;;;;;20.03;13.13;;;;;;;8.43;74.08;97791.72;5094574;28;41063;-74
2022/04/22 01:44:36;;;;;;;19.93;12.93;;;;;;;8.75;73.67;97844.03;5113302;28;40046;-74
2022/04/22 01:47:04;;;;;;;19.90;12.23;;;;;;;8.72;74.23;97834.53;5111179;28;41991;-74
2022/04/22 01:49:32;;;;;;;19.00;12.87;;;;;;;8.69;73.92;97834.75;5111900;28;42681;-74
2022/04/22 01:52:00;;;;;;;18.63;12.37;;;;;;;8.68;73.90;97840.97;5111691;28;43551;-74
2022/04/22 01:54:28;;;;;;;17.97;10.80;;;;;;;8.65;73.94;97849.13;5113125;28;40122;-74
2022/04/22 01:56:57;;;;;;;19.57;12.07;;;;;;;8.62;74.12;97844.06;5111522;28;42641;-74
2022/04/22 01:59:25;;;;;;;16.07;10.40;;;;;;;8.61;73.87;97845.84;5094609;28;43110;-75
2022/04/22 02:01:52;;;;;;;19.33;12.40;;;;;;;8.58;73.63;97837.28;5111318;28;41323;-74
2022/04/22 02:04:20;;;;;;;18.70;11.87;;;;;;;8.55;74.08;97838.34;5113005;28;39992;-74
2022/04/22 02:06:47;;;;;;;20.20;13.40;;;;;;;8.50;74.48;97834.38;5111284;28;40674;-75
2022/04/22 02:09:15;;;;;;;18.97;12.23;;;;;;;8.48;74.58;97830.97;5111562;28;43645;-74
2022/04/22 02:11:43;;;;;;;23.53;13.07;;;;;;;8.37;74.21;97818.56;5110859;28;41093;-74
2022/04/22 02:14:12;;;;;;;18.60;11.27;;;;;;;8.42;74.87;97834.03;5111122;28;39879;-74
2022/04/22 02:16:40;;;;;;;18.67;11.63;;;;;;;8.39;75.16;97824.56;5094167;28;41496;-74
2022/04/22 02:19:09;;;;;;;18.80;11.97;;;;;;;8.39;74.77;97834.28;5110787;28;42462;-74
2022/04/22 02:21:36;;;;;;;18.83;12.30;;;;;;;8.37;74.55;97829.09;5112356;28;42354;-74
2022/04/22 02:24:05;;;;;;;18.17;11.50;;;;;;;8.38;74.34;97829.94;5111409;28;39972;-74
2022/04/22 02:28:31;;;;;;;18.87;11.63;;;;;;;8.34;74.42;97828.47;5093885;28;40991;-74
2022/04/22 02:29:22;;;;;;;21.40;12.90;;;;;;;8.32;74.72;97823.28;5108064;28;43456;-75
2022/04/22 02:31:52;;;;;;;19.67;11.57;;;;;;;8.22;74.58;97804.59;5111145;28;43192;-75
2022/04/22 02:34:20;;;;;;;19.63;11.67;;;;;;;8.23;74.57;97811.56;5111482;28;38723;-74
2022/04/22 02:36:49;;;;;;;19.37;12.03;;;;;;;8.20;74.99;97805.66;5110372;28;40287;-74
2022/04/22 02:39:17;;;;;;;17.87;11.50;;;;;;;8.18;74.64;97808.41;5110901;28;41800;-74
2022/04/22 02:47:17;;;;;;;19.97;11.97;;;;;;;8.12;74.60;97797.44;5090417;28;40694;-74
2022/04/22 02:49:44;;;;;;;17.00;11.27;;;;;;;8.07;74.37;97789.84;5091852;28;43647;-74
2022/04/22 02:52:13;;;;;;;18.07;13.20;;;;;;;8.06;74.89;97788.16;5090177;28;42209;-74
2022/04/22 02:54:41;;;;;;;19.60;12.73;;;;;;;8.05;74.69;97797.00;5090481;28;39195;-74
2022/04/22 02:57:10;;;;;;;18.47;11.70;;;;;;;8.06;74.64;97787.31;5091405;28;42865;-74
2022/04/22 02:59:41;;;;;;;18.03;11.53;;;;;;;8.04;74.69;97787.41;5073538;28;41921;-74
2022/04/22 03:02:09;;;;;;;19.37;12.30;;;;;;;8.04;74.42;97782.13;5087700;28;42435;-74
2022/04/22 03:04:37;;;;;;;19.43;11.90;;;;;;;7.80;74.52;97744.28;5090603;28;41057;-74
2022/04/22 03:07:05;;;;;;;17.70;11.30;;;;;;;8.00;74.63;97777.22;5090194;28;42794;-74
2022/04/22 03:09:32;;;;;;;18.17;12.23;;;;;;;7.96;74.73;97771.28;5088663;28;41793;-75
2022/04/22 03:12:00;;;;;;;17.83;12.50;;;;;;;7.93;75.10;97768.84;5093252;28;42452;-74
2022/04/22 03:14:29;;;;;;;17.20;10.77;;;;;;;7.91;75.24;97770.78;5110630;28;40084;-74
2022/04/22 03:16:58;;;;;;;18.70;11.43;;;;;;;7.91;74.75;97776.06;5093345;28;40683;-74
2022/04/22 03:19:26;;;;;;;18.10;11.30;;;;;;;7.91;74.69;97768.16;5110279;28;43808;-74
2022/04/22 03:21:53;;;;;;;16.50;11.37;;;;;;;7.90;74.78;97774.38;5111494;28;42262;-74
2022/04/22 03:24:21;;;;;;;16.03;10.60;;;;;;;7.86;74.55;97781.63;5110575;28;40127;-74
2022/04/22 03:26:49;;;;;;;17.57;11.17;;;;;;;7.78;75.00;97762.88;5093348;28;43805;-74
2022/04/22 03:29:16;;;;;;;19.87;11.63;;;;;;;7.82;75.25;97774.03;5096912;28;41922;-74
2022/04/22 03:31:44;;;;;;;16.67;11.17;;;;;;;7.82;74.80;97779.31;5114077;28;42280;-76
2022/04/22 03:34:13;;;;;;;15.37;10.50;;;;;;;7.80;74.52;97778.56;5115320;28;41040;-74
2022/04/22 03:36:41;;;;;;;18.37;10.93;;;;;;;7.76;74.46;97774.47;5096819;28;40701;-74
2022/04/22 03:39:09;;;;;;;14.23;11.30;;;;;;;7.75;75.03;97770.13;5096763;28;43212;-74
2022/04/22 03:41:38;;;;;;;18.03;11.97;;;;;;;7.73;74.57;97770.25;5113755;28;42458;-74
2022/04/22 03:44:06;;;;;;;16.07;10.87;;;;;;;7.69;75.04;97765.28;5096774;28;38876;-74
2022/04/22 03:46:34;;;;;;;16.43;10.93;;;;;;;7.68;74.55;97766.22;5114618;28;42700;-74
2022/04/22 03:49:04;;;;;;;20.17;11.10;;;;;;;7.66;74.66;97760.25;5113840;28;42737;-74
2022/04/22 03:51:33;;;;;;;17.23;11.10;;;;;;;7.64;74.18;97762.13;5095836;28;41518;-75
2022/04/22 03:54:02;;;;;;;17.90;10.80;;;;;;;7.61;74.71;97757.06;5096702;28;39412;-74
2022/04/22 03:59:14;;;;;;;18.67;11.13;;;;;;;7.56;74.70;97752.09;5110385;28;42735;-74
2022/04/22 04:01:42;;;;;;;16.87;9.87;;;;;;;7.52;74.85;97751.47;5113343;28;41258;-74
2022/04/22 04:04:10;;;;;;;16.47;9.83;;;;;;;7.52;74.89;97751.47;5113551;28;39057;-74
2022/04/22 04:06:39;;;;;;;18.53;11.47;;;;;;;7.46;75.68;97749.25;5114570;28;42634;-74
2022/04/22 04:17:21;;;;;;;17.37;11.17;;;;;;;7.51;75.35;97765.59;5111793;28;42577;-75
2022/04/22 04:25:22;;;;;;;15.33;9.97;;;;;;;7.52;75.04;97766.44;5112204;28;40888;-75
2022/04/22 04:27:49;;;;;;;17.47;10.60;;;;;;;7.54;74.65;97764.56;5097267;28;40956;-75
2022/04/22 04:30:17;;;;;;;14.23;9.17;;;;;;;7.53;74.61;97755.81;5114345;28;43649;-75
2022/04/22 04:32:45;;;;;;;14.57;9.27;;;;;;;7.54;74.29;97754.81;5113125;28;42987;-74
2022/04/22 04:35:13;;;;;;;16.73;10.33;;;;;;;7.55;74.36;97751.25;5113134;28;40935;-74
2022/04/22 04:37:43;;;;;;;13.33;9.80;;;;;;;7.56;74.39;97752.94;5113739;27;42633;-74
2022/04/22 04:40:12;;;;;;;13.93;9.33;;;;;;;7.57;74.21;97748.50;5113992;28;42642;-74
2022/04/22 04:42:40;;;;;;;16.07;9.67;;;;;;;7.60;73.92;97758.00;5115605;27;42206;-74
2022/04/22 04:45:09;;;;;;;15.47;10.27;;;;;;;7.61;73.77;97754.41;5112694;28;40215;-74
2022/04/22 04:47:40;;;;;;;14.60;9.97;;;;;;;7.63;74.00;97753.38;5113760;28;41724;-74
2022/04/22 04:50:10;;;;;;;13.00;8.57;;;;;;;7.67;74.15;97748.72;5110841;28;43030;-74
2022/04/22 04:52:38;;;;;;;14.00;9.30;;;;;;;7.61;73.87;97733.34;5112412;28;42097;-74
2022/04/22 04:55:10;;;;;;;13.50;9.30;;;;;;;7.79;73.50;97751.34;5112800;28;41012;-74
2022/04/22 04:57:38;;;;;;;12.90;8.87;;;;;;;7.85;73.61;97753.59;5095218;28;42089;-74
2022/04/22 05:00:10;;;;;;;13.33;9.47;;;;;;;7.93;73.21;97756.53;5113885;28;42878;-74
2022/04/22 05:02:39;;;;;;;15.27;9.27;;;;;;;7.97;72.73;97749.25;5110934;28;43169;-74
2022/04/22 05:05:09;;;;;;;16.60;10.00;;;;;;;8.09;72.78;97751.03;5112552;28;38757;-74
2022/04/22 05:07:48;;;;;;;10.53;7.80;;;;;;;8.18;72.23;97746.91;5111743;28;41661;-74
2022/04/22 05:10:19;;;;;;;14.07;9.87;;;;;;;8.24;72.10;97747.31;5112069;28;42048;-74
2022/04/22 05:12:46;;;;;;;12.23;8.90;;;;;;;8.34;71.66;97744.06;5111017;28;42159;-74
2022/04/22 05:15:15;;;;;;;11.90;9.17;;;;;;;8.41;71.58;97750.56;5095304;28;38552;-74
2022/04/22 05:17:43;;;;;;;12.93;8.63;;;;;;;8.49;71.06;97757.00;5112320;28;41472;-74
2022/04/22 05:20:13;;;;;;;13.10;8.33;;;;;;;8.59;70.61;97754.53;5111805;28;42715;-74
2022/04/22 05:22:41;;;;;;;11.03;8.23;;;;;;;8.56;70.56;97738.94;5112145;28;42036;-74
2022/04/22 05:25:10;;;;;;;14.17;9.03;;;;;;;8.80;70.21;97754.78;5112285;28;40941;-74
2022/04/22 05:27:39;;;;;;;11.97;8.50;;;;;;;8.89;69.85;97757.63;5111916;28;42993;-74
2022/04/22 05:32:54;;;;;;;12.47;8.63;;;;;;;9.14;69.13;97763.72;5110649;28;43129;-74
2022/04/22 05:35:23;;;;;;;14.27;8.67;;;;;;;9.27;68.63;97751.28;5112062;28;41054;-74
2022/04/22 05:37:53;;;;;;;10.57;7.73;;;;;;;9.42;68.32;97755.41;5111820;28;41740;-74
2022/04/22 05:40:22;;;;;;;12.10;8.33;;;;;;;9.55;67.76;97750.88;5094768;28;44593;-74
2022/04/22 05:42:52;;;;;;;10.93;7.80;;;;;;;9.64;67.40;97744.88;5111803;28;41957;-74
2022/04/22 05:45:22;;;;;;;13.67;9.10;;;;;;;9.64;66.80;97729.03;5112347;28;40765;-74
2022/04/22 05:47:51;;;;;;;9.50;7.10;;;;;;;10.00;66.30;97750.97;5113007;28;41646;-74
2022/04/22 05:50:19;;;;;;;11.07;8.07;;;;;;;10.22;66.06;97751.00;5093880;28;42701;-74
2022/04/22 05:52:47;;;;;;;10.23;7.77;;;;;;;10.37;65.27;97749.78;5112850;28;42279;-74
2022/04/22 05:55:18;;;;;;;10.03;7.63;;;;;;;10.46;65.00;97750.00;5094570;28;39329;-74
2022/04/22 05:57:48;;;;;;;13.10;8.87;;;;;;;10.42;64.51;97752.91;5111195;28;42537;-74
2022/04/22 06:00:19;;;;;;;9.60;7.40;;;;;;;10.59;64.13;97748.06;5111773;28;43039;-74
2022/04/22 06:02:48;;;;;;;10.03;8.20;;;;;;;10.72;64.08;97744.31;5111631;28;42105;-74
2022/04/22 06:05:17;;;;;;;10.83;7.80;;;;;;;10.85;63.54;97744.16;5111635;28;39441;-74
2022/04/22 06:07:46;;;;;;;11.83;8.10;;;;;;;11.09;63.20;97751.91;5111787;28;42379;-75
2022/04/22 06:10:32;;;;;;;11.90;8.53;;;;;;;11.25;62.14;97747.00;5111643;28;41703;-75
2022/04/22 06:13:01;;;;;;;10.77;7.73;;;;;;;11.46;60.67;97755.00;5111656;28;43260;-75
2022/04/22 06:15:31;;;;;;;11.10;8.47;;;;;;;11.65;60.13;97755.13;5094603;28;38972;-75
2022/04/22 06:17:59;;;;;;;10.80;8.17;;;;;;;11.72;60.26;97755.47;5111033;28;40429;-75
2022/04/22 06:20:27;;;;;;;10.97;8.50;;;;;;;11.77;59.55;97745.31;5112307;28;44152;-76
2022/04/22 06:22:56;;;;;;;10.47;7.90;;;;;;;12.04;59.50;97745.63;5093870;28;43017;-75
2022/04/22 06:25:24;;;;;;;12.90;8.50;;;;;;;12.30;58.74;97751.34;5111610;28;41988;-75
2022/04/22 06:27:51;;;;;;;15.40;9.40;;;;;;;12.50;58.46;97750.41;5110843;28;40055;-74
2022/04/22 06:30:22;;;;;;;10.07;7.40;;;;;;;12.63;57.49;97746.69;5112494;28;42887;-75
2022/04/22 06:32:53;;;;;;;12.13;8.63;;;;;;;12.87;56.76;97755.13;5111416;28;42811;-75
2022/04/22 06:35:22;;;;;;;11.13;8.80;;;;;;;13.02;56.54;97758.25;5109519;28;41070;-74
2022/04/22 06:37:51;;;;;;;10.80;7.67;;;;;;;13.10;55.30;97764.56;5111038;28;41657;-76
2022/04/22 06:45:52;;;;;;;11.33;8.50;;;;;;;13.09;54.79;97764.69;5118730;27;40978;-75
2022/04/22 06:48:25;;;;;;;12.03;8.17;;;;;;;13.13;54.96;97763.41;5131156;27;42401;-75
2022/04/22 06:50:56;;;;;;;11.57;8.63;;;;;;;13.21;54.99;97758.31;5129801;27;44004;-75
2022/04/22 06:53:25;;;;;;;10.57;7.87;;;;;;;13.48;55.71;97755.75;5131528;27;41892;-75
2022/04/22 06:55:53;;;;;;;11.43;8.33;;;;;;;13.72;54.18;97765.16;5131578;27;39972;-75
2022/04/22 06:58:22;;;;;;;11.63;8.30;;;;;;;14.16;53.29;97767.16;5131047;27;42943;-75
2022/04/22 07:00:50;;;;;;;9.23;8.00;;;;;;;14.41;51.77;97752.38;5131259;27;43201;-75
2022/04/22 07:03:18;;;;;;;9.90;7.97;;;;;;;14.54;51.97;97754.69;5113784;27;41787;-74
2022/04/22 07:05:49;;;;;;;10.97;8.50;;;;;;;14.54;51.17;97760.88;5133226;27;40859;-75
2022/04/22 07:08:19;;;;;;;11.13;8.37;;;;;;;14.60;51.49;97762.94;5131860;27;42705;-75
2022/04/22 07:10:49;;;;;;;11.07;8.47;;;;;;;14.72;50.97;97759.06;5114095;27;41147;-75
2022/04/22 07:13:18;;;;;;;11.97;8.70;;;;;;;15.00;50.50;97767.06;5130483;27;43117;-75
2022/04/22 07:15:48;;;;;;;11.60;8.50;;;;;;;15.34;49.71;97769.91;5114354;27;40104;-75
2022/04/22 07:18:17;;;;;;;10.70;8.10;;;;;;;15.63;49.37;97769.72;5093338;28;42004;-75
2022/04/22 07:20:47;;;;;;;10.53;8.20;;;;;;;15.77;48.40;97777.16;5111565;28;42522;-75
2022/04/22 07:23:15;;;;;;;10.20;8.27;;;;;;;15.85;48.24;97774.56;5093255;28;42309;-75
2022/04/22 07:25:46;;;;;;;11.23;8.77;;;;;;;16.29;46.20;97794.06;5112109;28;39944;-75
2022/04/22 07:28:15;;;;;;;9.63;8.07;;;;;;;16.97;45.79;97782.56;5110789;28;41673;-76
2022/04/22 07:30:50;;;;;;;12.83;8.50;;;;;;;17.54;44.08;97792.41;5110647;28;42671;-75
2022/04/22 07:33:18;;;;;;;9.70;8.67;;;;;;;17.84;43.42;97792.78;5093086;28;41534;-75
2022/04/22 07:35:48;;;;;;;10.87;9.00;;;;;;;18.05;42.44;97795.78;5093374;28;40505;-75
2022/04/22 07:38:18;;;;;;;9.30;8.30;;;;;;;18.80;42.82;97788.25;5109922;28;42329;-76
2022/04/22 07:40:50;;;;;;;10.83;9.03;;;;;;;19.12;41.02;97811.44;5111589;28;43590;-75
2022/04/22 07:48:49;;;;;;;10.50;8.57;;;;;;;19.18;39.40;97807.22;5093175;28;41019;-75
2022/04/22 07:51:19;;;;;;;10.10;9.00;;;;;;;19.99;38.89;97804.88;5111404;28;43802;-75
2022/04/22 07:53:47;;;;;;;10.13;7.87;;;;;;;20.69;36.91;97809.09;5110125;28;41214;-75
2022/04/22 07:56:15;;;;;;;9.00;7.77;;;;;;;21.06;36.46;97798.22;5110141;28;40680;-75
2022/04/22 07:58:43;;;;;;;9.43;8.00;;;;;;;21.24;35.68;97815.88;5109873;28;41699;-75
2022/04/22 08:01:10;;;;;;;9.30;8.33;;;;;;;21.97;33.96;97817.47;5111190;28;43574;-76
2022/04/22 08:03:38;;;;;;;8.63;7.60;;;;;;;22.83;34.20;97813.63;5092508;28;41838;-75
2022/04/22 08:06:06;;;;;;;9.47;8.50;;;;;;;23.15;33.89;97807.56;5110225;28;41654;-77
2022/04/22 08:08:36;;;;;;;9.20;8.30;;;;;;;23.05;34.19;97807.13;5109812;28;40649;-75
2022/04/22 08:11:03;;;;;;;9.23;8.30;;;;;;;22.82;32.48;97817.38;5109866;28;43652;-76
2022/04/22 08:13:32;;;;;;;9.63;8.60;;;;;;;22.72;32.42;97827.66;5094192;28;42314;-76
2022/04/22 08:16:00;;;;;;;9.10;8.07;;;;;;;22.84;33.08;97826.94;5096279;28;39915;-76
2022/04/22 08:18:27;;;;;;;9.20;8.30;;;;;;;23.21;32.42;97809.47;5096077;28;41243;-76
2022/04/22 08:20:55;;;;;;;8.90;7.60;;;;;;;24.08;31.83;97818.69;5113073;28;43707;-76
2022/04/22 08:23:23;;;;;;;11.10;8.17;;;;;;;24.85;31.12;97815.34;5113133;28;43169;-76
2022/04/22 08:25:52;;;;;;;9.07;7.67;;;;;;;25.37;29.43;97820.59;5113473;28;40074;-75
2022/04/22 08:28:20;;;;;;;8.50;7.30;;;;;;;25.64;30.29;97812.38;5112598;28;40825;-75
2022/04/22 08:30:47;;;;;;;8.97;8.07;;;;;;;25.53;29.22;97818.44;5112679;28;42320;-76
2022/04/22 08:33:16;;;;;;;8.83;7.93;;;;;;;25.41;28.96;97823.72;5095850;28;41552;-75
2022/04/22 08:35:44;;;;;;;11.40;8.43;;;;;;;25.29;28.82;97818.13;5113059;28;39328;-75
2022/04/22 08:38:11;;;;;;;8.43;7.53;;;;;;;25.57;28.87;97815.09;5113892;28;42710;-75
2022/04/22 08:40:39;;;;;;;8.00;7.20;;;;;;;26.40;28.41;97812.28;5113012;28;44144;-74
2022/04/22 08:43:11;;;;;;;8.73;7.83;;;;;;;27.23;27.40;97806.44;5112642;28;43190;-75
2022/04/22 08:45:40;;;;;;;10.00;6.93;;;;;;;28.15;26.02;97814.22;5114963;27;38950;-75
2022/04/22 08:50:55;;;;;;;8.53;7.73;;;;;;;29.38;24.17;97818.78;5111141;28;42684;-75
2022/04/22 08:53:25;;;;;;;10.63;8.03;;;;;;;29.34;24.71;97805.81;5112277;28;42053;-76
2022/04/22 08:55:56;;;;;;;7.97;7.23;;;;;;;29.58;24.54;97808.28;5095851;28;41252;-75
2022/04/22 08:58:27;;;;;;;8.87;8.07;;;;;;;29.87;23.12;97816.47;5129440;27;42687;-76
2022/04/22 09:00:57;;;;;;;7.97;7.17;;;;;;;30.30;24.19;97811.25;5113043;28;41803;-75
2022/04/22 09:03:27;;;;;;;7.57;6.87;;;;;;;30.93;23.10;97799.16;5112537;28;42223;-76
2022/04/22 09:05:56;;;;;;;7.83;7.10;;;;;;;31.06;22.20;97803.44;5112708;28;40304;-76
2022/04/22 09:08:25;;;;;;;7.77;7.07;;;;;;;31.25;21.78;97814.94;5095179;28;41996;-75
2022/04/22 09:10:53;;;;;;;8.03;7.03;;;;;;;31.43;22.44;97801.75;5112533;28;42889;-75
2022/04/22 09:13:27;;;;;;;7.63;6.93;;;;;;;31.32;22.58;97797.25;5112124;28;41935;-75
2022/04/22 09:15:55;;;;;;;7.97;7.27;;;;;;;31.10;21.69;97792.84;5109634;28;39876;-77
2022/04/22 09:18:25;;;;;;;7.57;6.87;;;;;;;30.41;22.60;97790.41;5112973;28;41749;-75
2022/04/22 09:20:56;;;;;;;7.67;6.97;;;;;;;30.13;22.42;97788.59;5112092;28;43477;-76
2022/04/22 09:23:32;;;;;;;7.43;6.83;;;;;;;30.13;21.79;97772.19;5111837;28;42258;-75
2022/04/22 09:26:00;;;;;;;7.17;6.47;;;;;;;30.58;22.26;97783.06;5109400;28;40882;-75
2022/04/22 09:28:30;;;;;;;8.00;7.23;;;;;;;31.37;21.44;97788.28;5128741;27;41910;-75
2022/04/22 09:31:00;;;;;;;6.53;5.93;;;;;;;32.05;20.74;97790.41;5111272;28;43955;-74
2022/04/22 09:33:35;;;;;;;7.10;6.50;;;;;;;32.50;19.58;97791.13;5094717;28;42258;-75
2022/04/22 09:44:27;;;;;;;5.90;5.40;;;;;;;30.96;20.94;97765.84;5109937;28;42168;-75
2022/04/22 09:47:11;;;;;;;7.57;6.07;;;;;;;30.39;21.74;97753.50;5110782;28;41905;-75
2022/04/22 09:49:43;;;;;;;7.07;6.27;;;;;;;30.03;22.71;97738.44;5095177;28;41160;-75
2022/04/22 09:52:11;;;;;;;6.77;6.07;;;;;;;29.91;21.73;97752.13;5094592;28;41111;-75
2022/04/22 09:54:39;;;;;;;8.23;5.53;;;;;;;29.51;23.44;97739.38;5111924;28;42464;-75
2022/04/22 09:57:07;;;;;;;5.13;4.63;;;;;;;29.75;22.43;97737.38;5094819;28;39953;-75
2022/04/22 09:59:36;;;;;;;6.60;6.00;;;;;;;29.67;23.69;97724.94;5113112;28;42647;-74
2022/04/22 10:02:04;;;;;;;7.63;6.03;;;;;;;29.48;23.68;97728.97;5094463;28;42791;-75
2022/04/22 10:04:33;;;;;;;5.33;4.83;;;;;;;29.07;23.49;97737.38;5094549;28;41639;-76
2022/04/22 10:07:02;;;;;;;5.37;4.80;;;;;;;29.04;23.69;97718.78;5111679;28;38918;-76
2022/04/22 10:09:30;;;;;;;5.83;5.20;;;;;;;28.48;23.89;97723.81;5112688;28;42690;-74
2022/04/22 10:12:00;;;;;;;5.87;5.37;;;;;;;27.80;23.83;97726.22;5111193;28;42754;-74
2022/04/22 10:14:36;;;;;;;7.27;5.73;;;;;;;27.48;24.52;97718.25;5111423;28;42549;-76
2022/04/22 10:17:07;;;;;;;5.30;4.90;;;;;;;27.68;24.10;97712.56;5111355;28;39219;-75
2022/04/22 10:19:35;;;;;;;6.17;5.57;;;;;;;27.98;24.10;97717.13;5111025;28;41792;-75
2022/04/22 10:22:07;;;;;;;5.80;5.30;;;;;;;28.01;23.72;97714.75;5094099;28;41630;-76
2022/04/22 10:24:34;;;;;;;6.57;5.90;;;;;;;27.73;23.85;97712.69;5094786;28;42199;-75
2022/04/22 10:27:04;;;;;;;5.60;5.10;;;;;;;27.64;24.25;97691.50;5111419;28;40943;-75
2022/04/22 10:29:33;;;;;;;5.13;4.67;;;;;;;27.88;25.00;97671.44;5112614;28;42797;-75
2022/04/22 10:32:04;;;;;;;5.83;4.97;;;;;;;28.12;23.53;97692.16;5094130;28;41649;-76
2022/04/22 10:34:40;;;;;;;4.87;4.47;;;;;;;29.22;23.80;97694.88;5112638;28;42599;-76
2022/04/22 10:37:17;;;;;;;5.40;4.90;;;;;;;30.36;22.60;97701.00;5110666;27;41255;-75
2022/04/22 10:39:50;;;;;;;5.57;5.10;;;;;;;31.40;22.41;97703.75;5108249;28;41816;-75
2022/04/22 10:42:18;;;;;;;5.27;4.77;;;;;;;31.95;20.83;97712.81;5110153;28;42775;-75
2022/04/22 10:47:47;;;;;;;5.60;5.10;;;;;;;33.41;21.27;97692.88;5109248;28;39820;-75
2022/04/22 10:50:29;;;;;;;4.80;4.40;;;;;;;34.86;18.18;97714.38;5111051;28;42923;-76
2022/04/22 10:53:02;;;;;;;5.70;5.20;;;;;;;35.59;18.75;97692.56;5111118;28;43589;-77
2022/04/22 10:55:36;;;;;;;7.17;5.87;;;;;;;36.14;18.03;97701.53;5108054;28;43087;-75
2022/04/22 10:58:24;;;;;;;5.78;5.28;;;;;;;36.68;17.06;97701.31;5093407;28;40364;-77
2022/04/22 11:00:54;;;;;;;5.70;5.20;;;;;;;36.65;17.23;97694.44;5110874;28;42506;-75
2022/04/22 11:03:25;;;;;;;6.00;5.53;;;;;;;36.58;16.27;97684.88;5093768;28;43245;-75
2022/04/22 11:05:57;;;;;;;5.57;5.07;;;;;;;37.35;16.42;97694.75;5111022;28;41845;-75
2022/04/22 11:08:30;;;;;;;5.97;5.47;;;;;;;37.83;17.18;97688.31;5110448;28;39770;-76
2022/04/22 11:11:15;;;;;;;6.05;5.55;;;;;;;37.63;15.30;97694.94;5094116;28;40982;-77
2022/04/22 11:13:50;;;;;;;5.93;5.43;;;;;;;37.36;16.40;97685.34;5110425;28;41651;-75
2022/04/22 11:16:30;;;;;;;5.70;5.10;;;;;;;37.80;16.27;97673.13;5094039;28;43002;-75
2022/04/22 11:19:36;;;;;;;6.13;5.63;;;;;;;37.91;16.43;97680.13;5093339;28;39610;-76
2022/04/22 11:22:07;;;;;;;5.23;4.83;;;;;;;37.87;15.24;97683.78;5110130;28;40518;-77
2022/04/22 11:24:36;;;;;;;4.80;4.40;;;;;;;37.68;15.76;97667.25;5107779;28;42667;-75
2022/04/22 11:27:10;;;;;;;5.33;4.80;;;;;;;36.92;16.82;97662.72;5109955;28;42001;-76
2022/04/22 11:29:38;;;;;;;5.30;4.90;;;;;;;36.10;17.41;97656.38;5093545;28;39960;-76
2022/04/22 11:32:20;;;;;;;5.10;4.70;;;;;;;36.15;17.82;97659.06;5111571;28;42688;-75
2022/04/22 11:35:22;;;;;;;5.40;5.00;;;;;;;35.25;17.40;97660.25;5110816;28;41726;-76
2022/04/22 11:38:04;;;;;;;5.30;4.90;;;;;;;34.84;17.04;97662.38;5093424;28;42069;-82
2022/04/22 11:40:35;;;;;;;8.20;4.97;;;;;;;34.76;18.09;97653.84;5110490;28;40638;-75
2022/04/22 11:43:07;;;;;;;5.50;5.10;;;;;;;34.16;17.62;97655.59;5110383;28;42691;-75
2022/04/22 11:45:37;;;;;;;5.83;5.33;;;;;;;34.05;18.59;97638.31;5093407;28;41683;-75
2022/04/22 11:48:08;;;;;;;4.80;4.40;;;;;;;34.62;18.33;97636.31;5111087;27;43115;-76
2022/04/22 11:50:41;;;;;;;6.07;4.90;;;;;;;35.32;17.13;97646.19;5097136;28;38938;-77
2022/04/22 11:53:15;;;;;;;7.47;5.40;;;;;;;35.80;16.49;97636.25;5112617;28;41782;-78
2022/04/22 11:55:49;;;;;;;4.73;4.33;;;;;;;36.71;16.65;97645.59;5121585;27;41592;-75
2022/04/22 11:58:20;;;;;;;5.07;4.57;;;;;;;35.85;16.49;97662.94;5135323;27;41926;-77
2022/04/22 12:06:19;;;;;;;4.90;4.50;;;;;;;38.28;14.63;97659.91;5131229;27;43837;-76
2022/04/22 12:08:56;;;;;;;4.67;4.30;;;;;;;38.51;14.63;97646.19;5134190;27;43108;-76
2022/04/22 12:11:25;;;;;;;4.90;4.50;;;;;;;39.34;14.39;97650.59;5134343;27;40788;-76
2022/04/22 12:13:53;;;;;;;4.10;3.80;;;;;;;39.69;13.83;97654.53;5135332;27;41903;-77
2022/04/22 12:16:22;;;;;;;4.28;3.97;;;;;;;40.28;13.41;97658.06;5116886;27;42524;-77
2022/04/22 12:18:51;;;;;;;4.63;4.22;;;;;;;39.85;13.24;97655.81;5133165;27;41618;-76
2022/04/22 12:21:19;;;;;;;4.40;4.00;;;;;;;39.75;13.73;97642.19;5132175;27;41632;-75
2022/04/22 12:23:49;;;;;;;4.40;4.10;;;;;;;38.19;14.40;97641.53;5116648;27;41823;-76
2022/04/22 12:26:20;;;;;;;4.33;3.90;;;;;;;36.59;15.87;97629.44;5112850;28;44128;-75
2022/04/22 12:29:01;;;;;;;4.37;3.97;;;;;;;36.94;15.99;97610.81;5113096;28;41121;-75
2022/04/22 12:31:31;;;;;;;4.77;4.13;;;;;;;38.04;15.03;97623.25;5110037;28;40897;-76
2022/04/22 12:34:03;;;;;;;4.57;4.17;;;;;;;39.42;14.98;97614.72;5113168;28;40314;-76
2022/04/22 12:36:36;;;;;;;4.37;3.97;;;;;;;40.36;14.47;97627.63;5112929;28;42749;-77
2022/04/22 12:39:04;;;;;;;4.73;4.23;;;;;;;40.93;12.86;97633.25;5111386;28;42011;-75
2022/04/22 12:41:43;;;;;;;6.07;4.50;;;;;;;41.33;12.93;97622.88;5113118;28;39881;-76